Time;durP1;ratioP1;P1;durP2;ratioP2;P2;SDS_P1;SDS_P2;PMS_P1;PMS_P2;Temp;Humidity;BMP_temperature;BMP_pressure;BME280_temperature;BME280_humidity;BME280_pressure;Samples;Min_cycle;Max_cycle;Signal;HPM_P1;HPM_P2
2023/10/02 00:00:41;;;;;;;30.07;14.30;;;13.30;99.90;;;;;;5044412;28;20448;-69
2023/10/02 00:03:09;;;;;;;26.10;14.03;;;13.30;99.90;;;;;;5047962;28;20845;-70
2023/10/02 00:05:41;;;;;;;30.73;13.93;;;13.20;99.90;;;;;;5049993;28;20893;-70
2023/10/02 00:08:08;;;;;;;27.13;13.90;;;13.20;99.90;;;;;;5048680;28;20783;-70
2023/10/02 00:10:40;;;;;;;20.70;11.70;;;13.20;99.90;;;;;;5043757;28;20444;-70
2023/10/02 00:13:06;;;;;;;24.70;12.37;;;13.20;99.90;;;;;;5047805;28;20507;-70
2023/10/02 00:15:32;;;;;;;27.27;14.00;;;13.20;99.90;;;;;;5048750;28;20584;-70
2023/10/02 00:17:59;;;;;;;24.57;14.07;;;13.10;99.90;;;;;;5049250;28;20213;-70
2023/10/02 00:20:26;;;;;;;25.97;14.27;;;13.10;99.90;;;;;;5047643;28;20435;-69
2023/10/02 00:22:55;;;;;;;24.73;14.10;;;13.10;99.90;;;;;;5048895;28;20455;-70
2023/10/02 00:25:27;;;;;;;27.73;12.93;;;13.10;99.90;;;;;;5046869;28;20453;-70
2023/10/02 00:27:54;;;;;;;24.93;14.40;;;13.00;99.90;;;;;;5048800;28;20445;-70
2023/10/02 00:30:23;;;;;;;24.43;14.13;;;13.00;99.90;;;;;;5045610;28;20450;-70
2023/10/02 00:32:51;;;;;;;27.67;13.60;;;13.00;99.90;;;;;;5048841;28;20464;-70
2023/10/02 00:35:22;;;;;;;27.53;14.10;;;12.90;99.90;;;;;;5046548;28;20489;-70
2023/10/02 00:37:51;;;;;;;31.83;13.10;;;12.90;99.90;;;;;;5048726;28;20448;-70
2023/10/02 00:40:21;;;;;;;24.80;13.70;;;12.90;99.90;;;;;;5046111;28;20466;-69
2023/10/02 00:42:49;;;;;;;24.97;13.63;;;12.80;99.90;;;;;;5044463;28;20549;-70
2023/10/02 00:45:17;;;;;;;27.70;14.73;;;12.80;99.90;;;;;;5045165;28;20444;-69
2023/10/02 00:47:45;;;;;;;27.00;14.60;;;12.70;99.90;;;;;;5048526;28;20448;-70
2023/10/02 00:50:19;;;;;;;26.73;13.70;;;12.70;99.90;;;;;;5041122;28;20498;-70
2023/10/02 00:52:56;;;;;;;24.67;13.00;;;12.70;99.90;;;;;;5042778;28;20871;-70
2023/10/02 00:55:26;;;;;;;28.63;14.43;;;12.70;99.90;;;;;;5045851;28;20488;-69
2023/10/02 00:57:56;;;;;;;28.30;12.57;;;12.70;99.90;;;;;;5048126;28;20499;-70
2023/10/02 01:00:35;;;;;;;22.77;12.30;;;12.70;99.90;;;;;;5043067;28;20833;-70
2023/10/02 01:03:04;;;;;;;23.77;13.50;;;12.60;99.90;;;;;;5046766;28;20454;-69
2023/10/02 01:05:41;;;;;;;26.63;14.10;;;12.60;99.90;;;;;;5046205;28;20813;-70
2023/10/02 01:08:23;;;;;;;27.80;13.20;;;12.50;99.90;;;;;;5045851;28;20853;-69
2023/10/02 01:10:58;;;;;;;30.30;14.20;;;12.50;99.90;;;;;;5043133;28;20445;-70
2023/10/02 01:13:29;;;;;;;27.90;14.00;;;12.50;99.90;;;;;;5042441;28;20501;-70
2023/10/02 01:15:56;;;;;;;26.73;13.67;;;12.50;99.90;;;;;;5047005;28;20488;-69
2023/10/02 01:18:27;;;;;;;22.83;12.60;;;12.50;99.90;;;;;;5042211;28;20453;-69
2023/10/02 01:20:59;;;;;;;25.77;13.30;;;12.40;99.90;;;;;;5047106;28;20459;-69
2023/10/02 01:23:27;;;;;;;33.60;14.07;;;12.40;99.90;;;;;;5042177;28;20910;-70
2023/10/02 01:26:00;;;;;;;29.07;13.23;;;12.50;99.90;;;;;;5046804;28;20480;-70
2023/10/02 01:28:49;;;;;;;26.70;13.00;;;12.40;99.90;;;;;;5042090;28;20939;-70
2023/10/02 01:33:57;;;;;;;24.53;12.40;;;12.40;99.90;;;;;;5042269;28;20551;-70
2023/10/02 01:36:28;;;;;;;28.90;13.23;;;12.50;99.90;;;;;;5041261;28;20438;-70
2023/10/02 01:38:59;;;;;;;33.53;13.80;;;12.40;99.90;;;;;;5046552;28;20444;-70
2023/10/02 01:41:27;;;;;;;30.03;14.00;;;12.40;99.90;;;;;;5043321;28;20453;-69
2023/10/02 01:43:57;;;;;;;25.03;13.67;;;12.30;99.90;;;;;;5048899;28;20528;-70
2023/10/02 01:46:28;;;;;;;25.83;13.20;;;12.30;99.90;;;;;;5047892;28;20511;-71
2023/10/02 01:48:54;;;;;;;27.00;12.63;;;12.30;99.90;;;;;;5041536;28;20450;-70
2023/10/02 01:51:25;;;;;;;25.87;12.60;;;12.30;99.90;;;;;;5042388;28;20854;-70
2023/10/02 01:53:54;;;;;;;26.57;12.33;;;12.30;99.90;;;;;;5045616;28;20518;-71
2023/10/02 01:56:22;;;;;;;30.10;13.80;;;12.20;99.90;;;;;;5042335;28;20505;-70
2023/10/02 01:58:51;;;;;;;24.57;13.10;;;12.20;99.90;;;;;;5045693;28;20460;-70
2023/10/02 02:01:20;;;;;;;28.73;14.10;;;12.10;99.90;;;;;;5042454;28;20457;-70
2023/10/02 02:03:49;;;;;;;24.77;12.67;;;12.10;99.90;;;;;;5040053;28;20507;-69
2023/10/02 02:06:20;;;;;;;23.57;12.37;;;12.10;99.90;;;;;;5042901;28;20441;-70
2023/10/02 02:08:53;;;;;;;26.23;14.33;;;12.10;99.90;;;;;;5040450;28;20456;-70
2023/10/02 02:11:21;;;;;;;30.93;14.00;;;12.00;99.90;;;;;;5041971;28;20533;-70
2023/10/02 02:13:50;;;;;;;29.13;13.23;;;12.10;99.90;;;;;;5045042;28;20459;-70
2023/10/02 02:16:21;;;;;;;24.90;12.50;;;12.10;99.90;;;;;;5042022;28;21101;-70
2023/10/02 02:18:53;;;;;;;23.73;13.40;;;12.00;99.90;;;;;;5040219;28;20445;-70
2023/10/02 02:21:21;;;;;;;30.23;13.60;;;12.00;99.90;;;;;;5041528;28;20951;-70
2023/10/02 02:23:48;;;;;;;21.53;12.70;;;12.00;99.90;;;;;;5039838;28;20476;-70
2023/10/02 02:26:21;;;;;;;24.43;13.70;;;11.90;99.90;;;;;;5042470;28;20495;-70
2023/10/02 02:28:53;;;;;;;23.87;13.10;;;11.90;99.90;;;;;;5039619;28;20444;-70
2023/10/02 02:31:32;;;;;;;26.87;13.63;;;11.90;99.90;;;;;;5041270;28;20449;-70
2023/10/02 02:34:04;;;;;;;21.53;11.93;;;11.90;99.90;;;;;;5040796;28;20559;-70
2023/10/02 02:36:35;;;;;;;31.07;12.73;;;11.90;99.90;;;;;;5041892;28;20525;-70
2023/10/02 02:39:15;;;;;;;27.03;13.70;;;11.80;99.90;;;;;;5043425;28;20942;-70
2023/10/02 02:41:43;;;;;;;31.10;14.60;;;11.80;99.90;;;;;;5043039;28;20479;-70
2023/10/02 02:44:29;;;;;;;25.83;14.10;;;11.80;99.90;;;;;;5036989;28;20452;-70
2023/10/02 02:46:55;;;;;;;26.77;13.67;;;11.80;99.90;;;;;;5040445;28;20946;-70
2023/10/02 02:49:23;;;;;;;28.77;14.43;;;11.80;99.90;;;;;;5035667;28;20445;-70
2023/10/02 02:51:50;;;;;;;27.40;13.53;;;11.80;99.90;;;;;;5038889;28;20452;-70
2023/10/02 02:54:16;;;;;;;28.00;13.27;;;11.80;99.90;;;;;;5041240;28;20472;-70
2023/10/02 02:56:45;;;;;;;26.70;14.67;;;11.80;99.90;;;;;;5042978;28;20485;-70
2023/10/02 02:59:13;;;;;;;25.33;13.07;;;11.80;99.90;;;;;;5041743;28;20543;-70
2023/10/02 03:01:40;;;;;;;21.10;12.37;;;11.80;99.90;;;;;;5042460;28;20461;-70
2023/10/02 03:04:12;;;;;;;23.70;12.60;;;11.70;99.90;;;;;;5041852;28;20483;-70
2023/10/02 03:06:42;;;;;;;24.63;12.50;;;11.70;99.90;;;;;;5041946;28;20528;-70
2023/10/02 03:09:09;;;;;;;27.30;13.27;;;11.70;99.90;;;;;;5041925;28;20523;-70
2023/10/02 03:11:35;;;;;;;23.13;12.20;;;11.70;99.90;;;;;;5041096;28;20461;-70
2023/10/02 03:14:13;;;;;;;26.20;13.97;;;11.60;99.90;;;;;;5042255;28;20893;-70
2023/10/02 03:16:44;;;;;;;25.33;14.37;;;11.60;99.90;;;;;;5041271;28;20535;-70
2023/10/02 03:19:13;;;;;;;23.30;13.83;;;11.50;99.90;;;;;;5041245;28;20445;-70
2023/10/02 03:21:42;;;;;;;23.00;12.80;;;11.50;99.90;;;;;;5041323;28;20477;-69
2023/10/02 03:24:12;;;;;;;29.83;13.90;;;11.50;99.90;;;;;;5041133;28;20441;-69
2023/10/02 03:26:39;;;;;;;23.87;13.13;;;11.50;99.90;;;;;;5040930;28;20453;-69
2023/10/02 03:29:11;;;;;;;24.57;13.50;;;11.60;99.90;;;;;;5039955;28;20448;-69
2023/10/02 03:31:43;;;;;;;29.53;13.37;;;11.60;99.90;;;;;;5040615;28;20456;-69
2023/10/02 03:34:28;;;;;;;29.70;14.00;;;11.50;99.90;;;;;;5040761;28;20463;-69
2023/10/02 03:36:59;;;;;;;22.97;12.90;;;11.50;99.90;;;;;;5038628;28;20570;-69
2023/10/02 03:42:12;;;;;;;23.07;12.13;;;11.50;99.90;;;;;;5037553;28;20601;-70
2023/10/02 03:44:39;;;;;;;29.97;13.60;;;11.60;99.90;;;;;;5036263;28;20438;-70
2023/10/02 03:47:06;;;;;;;24.23;12.20;;;11.60;99.90;;;;;;5040780;28;21021;-72
2023/10/02 03:49:34;;;;;;;29.97;12.80;;;11.50;99.90;;;;;;5035165;28;20532;-70
2023/10/02 03:52:01;;;;;;;24.97;12.80;;;11.50;99.90;;;;;;5041014;28;20448;-70
2023/10/02 03:54:29;;;;;;;27.53;13.53;;;11.50;99.90;;;;;;5040351;28;20457;-70
2023/10/02 03:56:56;;;;;;;23.10;12.20;;;11.50;99.90;;;;;;5041610;28;21016;-70
2023/10/02 03:59:26;;;;;;;29.93;12.37;;;11.50;99.90;;;;;;5046391;28;20437;-70
2023/10/02 04:01:57;;;;;;;26.60;11.50;;;11.50;99.90;;;;;;5044922;28;20449;-70
2023/10/02 04:04:24;;;;;;;26.87;12.50;;;11.50;99.90;;;;;;5037711;28;20472;-70
2023/10/02 04:06:54;;;;;;;23.37;12.47;;;11.50;99.90;;;;;;5044376;28;20445;-69
2023/10/02 04:09:21;;;;;;;23.50;11.80;;;11.50;99.90;;;;;;5042028;28;20446;-70
2023/10/02 04:11:52;;;;;;;22.43;11.90;;;11.50;99.90;;;;;;5043606;28;20457;-70
2023/10/02 04:14:23;;;;;;;27.87;12.47;;;11.50;99.90;;;;;;5041899;28;20441;-70
2023/10/02 04:16:51;;;;;;;22.60;11.30;;;11.50;99.90;;;;;;5043766;28;20489;-70
2023/10/02 04:19:23;;;;;;;26.37;11.60;;;11.50;99.90;;;;;;5042022;28;20462;-69
2023/10/02 04:21:56;;;;;;;22.60;11.90;;;11.50;99.90;;;;;;5043533;28;20523;-70
2023/10/02 04:24:24;;;;;;;23.20;11.70;;;11.50;99.90;;;;;;5036725;28;20449;-70
2023/10/02 04:26:54;;;;;;;25.30;12.33;;;11.50;99.90;;;;;;5043487;28;20484;-70
2023/10/02 04:29:28;;;;;;;25.23;12.43;;;11.40;99.90;;;;;;5039578;28;20938;-69
2023/10/02 04:32:14;;;;;;;24.17;12.07;;;11.50;99.90;;;;;;5043414;28;20497;-70
2023/10/02 04:34:46;;;;;;;22.77;12.57;;;11.40;99.90;;;;;;5039876;28;20449;-71
2023/10/02 04:37:22;;;;;;;24.00;11.07;;;11.40;99.90;;;;;;5041520;28;20997;-69
2023/10/02 04:40:13;;;;;;;23.20;12.50;;;11.30;99.90;;;;;;5042677;28;20788;-69
2023/10/02 04:45:21;;;;;;;26.47;12.60;;;11.20;99.90;;;;;;5039947;28;20465;-71
2023/10/02 04:47:48;;;;;;;24.57;12.27;;;11.20;99.90;;;;;;5041967;28;20885;-71
2023/10/02 04:53:15;;;;;;;24.57;11.70;;;11.20;99.90;;;;;;5045690;28;20525;-69
2023/10/02 04:55:42;;;;;;;24.67;11.80;;;11.20;99.90;;;;;;5041650;28;20903;-69
2023/10/02 04:58:14;;;;;;;22.17;12.03;;;11.10;99.90;;;;;;5041392;28;20534;-70
2023/10/02 05:01:18;;;;;;;22.53;12.50;;;11.10;99.90;;;;;;5040546;28;20460;-71
2023/10/02 05:03:29;;;;;;;20.53;11.93;;;11.10;99.90;;;;;;5034948;28;20459;-69
2023/10/02 05:05:58;;;;;;;27.60;11.87;;;11.10;99.90;;;;;;5041208;28;20436;-69
2023/10/02 05:08:33;;;;;;;22.37;12.23;;;11.10;99.90;;;;;;5034513;28;20598;-70
2023/10/02 05:11:05;;;;;;;20.87;10.87;;;11.00;99.90;;;;;;5038761;28;20452;-70
2023/10/02 05:16:26;;;;;;;26.87;13.50;;;11.00;99.90;;;;;;5038892;28;20471;-70
2023/10/02 05:18:52;;;;;;;28.17;13.63;;;10.90;99.90;;;;;;5041529;28;20453;-70
2023/10/02 05:21:19;;;;;;;28.13;14.00;;;10.90;99.90;;;;;;5039059;28;20453;-70
2023/10/02 05:24:00;;;;;;;27.53;13.40;;;10.90;99.90;;;;;;5039529;28;20500;-70
2023/10/02 05:26:38;;;;;;;23.20;12.20;;;10.90;99.90;;;;;;5033838;28;20464;-70
2023/10/02 05:29:05;;;;;;;25.20;14.13;;;10.90;99.90;;;;;;5036993;28;20448;-69
2023/10/02 05:31:35;;;;;;;29.70;14.20;;;10.90;99.90;;;;;;5038073;28;20514;-70
2023/10/02 05:34:07;;;;;;;25.40;12.17;;;10.90;99.90;;;;;;5037785;28;20492;-70
2023/10/02 05:36:35;;;;;;;25.77;13.87;;;10.90;99.90;;;;;;5038216;28;20910;-70
2023/10/02 05:41:46;;;;;;;26.80;13.40;;;10.90;99.90;;;;;;5024967;28;20460;-69
2023/10/02 05:44:20;;;;;;;26.30;13.10;;;11.00;99.90;;;;;;5035955;28;20441;-69
2023/10/02 05:46:57;;;;;;;28.30;13.40;;;11.00;99.90;;;;;;5038634;28;20970;-70
2023/10/02 05:49:24;;;;;;;24.50;12.20;;;11.00;99.90;;;;;;5029557;28;20480;-69
2023/10/02 05:51:55;;;;;;;27.57;14.17;;;11.10;99.90;;;;;;5039126;28;20450;-70
2023/10/02 05:54:29;;;;;;;29.10;13.00;;;11.10;99.90;;;;;;5037616;28;20450;-70
2023/10/02 05:57:08;;;;;;;24.50;12.80;;;11.20;99.90;;;;;;5039620;28;20492;-69
2023/10/02 05:59:45;;;;;;;27.37;13.00;;;11.20;99.90;;;;;;5033620;28;20445;-68
2023/10/02 06:02:12;;;;;;;24.10;13.10;;;11.20;99.90;;;;;;5036842;28;20491;-68
2023/10/02 06:04:43;;;;;;;23.57;12.27;;;11.30;99.90;;;;;;5037393;28;20515;-68
2023/10/02 06:07:11;;;;;;;25.23;12.83;;;11.40;99.90;;;;;;5038782;28;20476;-67
2023/10/02 06:09:44;;;;;;;27.30;13.40;;;11.50;99.90;;;;;;5036891;28;20950;-67
2023/10/02 06:12:11;;;;;;;25.37;12.80;;;11.60;99.90;;;;;;5036674;28;20472;-67
2023/10/02 06:14:39;;;;;;;27.90;13.73;;;11.70;99.90;;;;;;5036905;28;20448;-67
2023/10/02 06:17:10;;;;;;;27.83;13.20;;;11.90;99.90;;;;;;5038605;28;20480;-67
2023/10/02 06:19:42;;;;;;;24.33;12.60;;;12.20;99.90;;;;;;5036649;28;20453;-68
2023/10/02 06:22:09;;;;;;;28.30;13.97;;;12.50;99.90;;;;;;5035878;28;20868;-68
2023/10/02 06:24:36;;;;;;;28.30;14.43;;;12.90;99.90;;;;;;5036558;28;20445;-68
2023/10/02 06:27:13;;;;;;;24.30;12.60;;;13.30;99.90;;;;;;5038641;28;20490;-68
2023/10/02 06:29:44;;;;;;;27.47;14.53;;;13.50;99.90;;;;;;5034990;28;20448;-68
2023/10/02 06:32:14;;;;;;;30.90;14.43;;;13.70;99.90;;;;;;5037290;28;20465;-68
2023/10/02 06:34:43;;;;;;;26.60;14.10;;;14.10;99.90;;;;;;5035965;28;20861;-69
2023/10/02 06:37:12;;;;;;;26.37;13.60;;;14.40;99.90;;;;;;5037740;28;20538;-69
2023/10/02 06:39:41;;;;;;;27.67;13.50;;;14.70;99.90;;;;;;5036107;28;20484;-69
2023/10/02 06:42:10;;;;;;;23.33;12.50;;;14.90;99.90;;;;;;5035638;28;20793;-68
2023/10/02 06:44:52;;;;;;;25.50;12.93;;;15.10;99.90;;;;;;5033506;28;20434;-69
2023/10/02 06:47:21;;;;;;;31.40;13.60;;;15.40;99.90;;;;;;5035423;28;20524;-69
2023/10/02 06:49:51;;;;;;;27.80;13.80;;;15.70;99.90;;;;;;5034294;28;20887;-69
2023/10/02 06:52:18;;;;;;;34.27;13.40;;;15.80;99.90;;;;;;5036160;28;20477;-69
2023/10/02 06:54:48;;;;;;;25.83;13.30;;;16.20;99.90;;;;;;5035792;28;20973;-69
2023/10/02 06:57:20;;;;;;;27.63;13.60;;;16.40;99.90;;;;;;5036171;28;20463;-69
2023/10/02 06:59:54;;;;;;;23.80;12.77;;;16.70;99.90;;;;;;5035694;28;20424;-69
2023/10/02 07:02:21;;;;;;;24.97;12.80;;;16.70;99.90;;;;;;5035406;28;20444;-69
2023/10/02 07:04:48;;;;;;;26.73;13.70;;;16.60;99.90;;;;;;5035761;28;20445;-69
2023/10/02 07:07:23;;;;;;;22.07;11.43;;;16.40;99.90;;;;;;5035748;28;20498;-69
2023/10/02 07:09:50;;;;;;;26.00;11.40;;;16.30;99.90;;;;;;5035842;28;20455;-69
2023/10/02 07:12:20;;;;;;;21.87;12.43;;;16.20;99.90;;;;;;5035057;28;20976;-69
2023/10/02 07:14:48;;;;;;;23.97;13.00;;;16.30;99.90;;;;;;5035096;28;20884;-69
2023/10/02 07:17:18;;;;;;;26.10;13.60;;;16.30;99.90;;;;;;5035530;28;20857;-69
2023/10/02 07:19:50;;;;;;;24.90;12.43;;;16.40;99.90;;;;;;5034821;28;20420;-68
2023/10/02 07:22:18;;;;;;;23.53;11.93;;;16.70;99.90;;;;;;5035051;28;20431;-69
2023/10/02 07:24:47;;;;;;;27.17;12.60;;;17.00;99.90;;;;;;5034421;28;20476;-69
2023/10/02 07:27:24;;;;;;;22.60;12.90;;;17.00;99.90;;;;;;5035765;28;20445;-69
2023/10/02 07:29:58;;;;;;;22.67;11.23;;;17.10;99.90;;;;;;5036200;28;20443;-68
2023/10/02 07:32:26;;;;;;;25.87;12.23;;;17.10;99.90;;;;;;5031708;28;20439;-69
2023/10/02 07:34:54;;;;;;;23.10;12.00;;;17.10;99.90;;;;;;5039046;28;20437;-69
2023/10/02 07:37:22;;;;;;;20.30;11.33;;;17.20;99.90;;;;;;5038214;28;20588;-69
2023/10/02 07:40:00;;;;;;;25.17;12.57;;;17.20;99.90;;;;;;5038601;28;20781;-69
2023/10/02 07:42:29;;;;;;;25.10;13.30;;;17.20;99.90;;;;;;5031637;28;20685;-69
2023/10/02 07:45:12;;;;;;;19.40;12.03;;;17.20;99.90;;;;;;5037375;28;20416;-69
2023/10/02 07:47:55;;;;;;;24.57;12.67;;;17.30;99.90;;;;;;5033042;28;20473;-69
2023/10/02 07:50:33;;;;;;;27.33;11.97;;;17.30;99.90;;;;;;5035582;28;20829;-69
2023/10/02 07:53:04;;;;;;;29.27;14.10;;;17.40;99.90;;;;;;5038571;28;20530;-69
2023/10/02 07:55:32;;;;;;;23.23;12.90;;;17.30;99.90;;;;;;5037379;28;20433;-69
2023/10/02 07:58:00;;;;;;;25.47;13.30;;;17.50;99.90;;;;;;5038009;28;20543;-66
2023/10/02 08:00:37;;;;;;;23.50;12.50;;;17.50;99.90;;;;;;5037047;28;20436;-66
2023/10/02 08:03:09;;;;;;;24.90;13.43;;;17.50;99.90;;;;;;5037982;28;20825;-69
2023/10/02 08:05:38;;;;;;;25.03;13.33;;;17.20;99.90;;;;;;5036959;28;20532;-69
2023/10/02 08:08:09;;;;;;;30.57;13.83;;;17.20;99.90;;;;;;5037898;28;20456;-69
2023/10/02 08:10:49;;;;;;;26.23;13.17;;;17.30;99.90;;;;;;5036438;28;20491;-69
2023/10/02 08:13:16;;;;;;;44.87;14.20;;;17.20;99.90;;;;;;5035875;28;20455;-69
2023/10/02 08:15:44;;;;;;;24.67;13.53;;;17.30;99.90;;;;;;5036301;28;20917;-69
2023/10/02 08:18:17;;;;;;;19.97;12.80;;;17.70;99.90;;;;;;5037436;28;20558;-69
2023/10/02 08:20:45;;;;;;;24.80;12.50;;;18.00;99.90;;;;;;5036268;28;20528;-69
2023/10/02 08:23:21;;;;;;;22.93;13.30;;;18.30;99.90;;;;;;5037220;28;20468;-69
2023/10/02 08:26:00;;;;;;;27.67;15.00;;;18.60;99.90;;;;;;5036302;28;20523;-69
2023/10/02 08:28:29;;;;;;;21.57;12.77;;;19.00;99.90;;;;;;5029504;28;20445;-69
2023/10/02 08:31:01;;;;;;;27.27;12.30;;;19.40;99.90;;;;;;5036541;28;20453;-69
2023/10/02 08:33:30;;;;;;;24.60;13.40;;;19.90;99.90;;;;;;5029086;28;20978;-69
2023/10/02 08:35:58;;;;;;;24.37;13.60;;;19.80;99.90;;;;;;5036786;28;20829;-69
2023/10/02 08:38:26;;;;;;;31.07;14.67;;;19.90;99.90;;;;;;5028684;28;20493;-69
2023/10/02 08:40:57;;;;;;;25.23;13.23;;;20.00;99.90;;;;;;5035725;28;20446;-68
2023/10/02 08:43:23;;;;;;;25.40;13.03;;;20.20;99.90;;;;;;5026893;28;20504;-69
2023/10/02 08:45:51;;;;;;;23.70;13.10;;;20.20;99.90;;;;;;5035094;28;20874;-68
2023/10/02 08:48:21;;;;;;;23.33;13.00;;;20.30;99.90;;;;;;5035941;28;20519;-69
2023/10/02 08:50:48;;;;;;;24.60;13.10;;;20.40;99.90;;;;;;5034922;28;20449;-69
2023/10/02 08:53:20;;;;;;;24.40;13.20;;;20.50;99.90;;;;;;5035475;28;20502;-69
2023/10/02 08:55:54;;;;;;;25.73;13.40;;;20.70;99.90;;;;;;5034939;28;20962;-69
2023/10/02 08:58:22;;;;;;;24.03;13.50;;;21.10;99.90;;;;;;5034252;28;20563;-69
2023/10/02 09:03:42;;;;;;;23.43;13.20;;;21.20;99.90;;;;;;5028706;28;20460;-68
2023/10/02 09:06:30;;;;;;;24.37;13.47;;;21.20;99.90;;;;;;5034955;28;20492;-69
2023/10/02 09:11:42;;;;;;;26.20;13.50;;;21.80;99.90;;;;;;5029233;28;20448;-68
2023/10/02 09:14:16;;;;;;;22.90;12.43;;;22.10;99.90;;;;;;5034806;28;20445;-69
2023/10/02 09:16:46;;;;;;;21.87;12.73;;;22.40;99.90;;;;;;5033864;28;20484;-69
2023/10/02 09:19:30;;;;;;;24.73;13.13;;;22.50;99.90;;;;;;5034042;28;20842;-69
2023/10/02 09:22:06;;;;;;;24.43;13.37;;;22.70;99.90;;;;;;5034019;28;20481;-69
2023/10/02 09:24:34;;;;;;;24.40;12.20;;;22.90;99.90;;;;;;5027442;28;20947;-68
2023/10/02 09:27:20;;;;;;;26.50;12.50;;;22.50;99.90;;;;;;5033970;28;20806;-68
2023/10/02 09:29:47;;;;;;;28.70;13.27;;;22.30;99.90;;;;;;5033023;28;20496;-68
2023/10/02 09:32:25;;;;;;;28.43;14.63;;;22.10;99.90;;;;;;5033681;28;20495;-68
2023/10/02 09:35:10;;;;;;;24.47;12.73;;;22.10;99.90;;;;;;5033076;28;20978;-68
2023/10/02 09:37:41;;;;;;;25.77;13.30;;;22.30;99.90;;;;;;5027539;28;20485;-68
2023/10/02 09:40:17;;;;;;;22.00;12.67;;;22.50;99.90;;;;;;5033754;28;20859;-68
2023/10/02 09:42:48;;;;;;;27.53;14.47;;;22.10;99.90;;;;;;5032712;28;20465;-68
2023/10/02 09:45:31;;;;;;;28.17;14.57;;;21.90;99.90;;;;;;5032702;28;20507;-68
2023/10/02 09:48:00;;;;;;;21.07;12.50;;;21.80;99.90;;;;;;5032812;28;20457;-68
2023/10/02 09:50:29;;;;;;;25.13;14.50;;;22.00;99.90;;;;;;5029138;28;20445;-68
2023/10/02 09:53:01;;;;;;;29.87;15.07;;;22.30;99.90;;;;;;5032113;28;20567;-68
2023/10/02 09:55:42;;;;;;;37.70;15.70;;;22.50;99.90;;;;;;5025477;28;20450;-68
2023/10/02 09:58:26;;;;;;;26.27;13.80;;;22.80;99.90;;;;;;5032675;28;20489;-68
2023/10/02 10:01:29;;;;;;;25.03;13.33;;;23.20;99.90;;;;;;5032169;28;20931;-68
2023/10/02 10:03:55;;;;;;;24.73;13.80;;;23.60;99.90;;;;;;5031995;28;20472;-68
2023/10/02 10:06:28;;;;;;;26.00;14.23;;;23.70;99.90;;;;;;5032106;28;20453;-68
2023/10/02 10:09:25;;;;;;;26.43;13.70;;;23.50;99.90;;;;;;5032114;28;20449;-70
2023/10/02 10:14:36;;;;;;;27.73;14.50;;;23.30;99.90;;;;;;5024124;28;20442;-68
2023/10/02 10:17:04;;;;;;;27.40;15.13;;;23.40;99.90;;;;;;5031592;28;20572;-68
2023/10/02 10:19:38;;;;;;;29.57;14.87;;;23.40;99.90;;;;;;5031466;28;20464;-68
2023/10/02 10:22:35;;;;;;;32.37;15.10;;;23.50;99.90;;;;;;5031367;28;20473;-68
2023/10/02 10:27:58;;;;;;;27.17;14.00;;;24.10;99.90;;;;;;5050328;28;20519;-68
2023/10/02 10:30:39;;;;;;;29.13;13.97;;;23.90;99.90;;;;;;5036740;28;20825;-68
2023/10/02 10:33:35;;;;;;;28.40;14.10;;;24.00;99.90;;;;;;5050847;28;20464;-69
2023/10/02 10:36:09;;;;;;;26.27;13.40;;;24.20;99.90;;;;;;5050639;28;20448;-68
2023/10/02 10:38:41;;;;;;;30.70;16.33;;;24.30;99.90;;;;;;5050882;28;20488;-68
2023/10/02 10:41:09;;;;;;;29.43;14.53;;;24.20;99.90;;;;;;5050581;28;20659;-68
2023/10/02 10:43:55;;;;;;;27.80;13.40;;;24.30;99.90;;;;;;5045432;28;20468;-68
2023/10/02 10:46:24;;;;;;;25.87;12.90;;;24.50;99.90;;;;;;5050326;28;20749;-69
2023/10/02 10:49:08;;;;;;;33.53;14.00;;;24.50;99.90;;;;;;5046327;28;20445;-69
2023/10/02 10:51:34;;;;;;;25.70;13.53;;;24.60;99.90;;;;;;5037256;28;20448;-68
2023/10/02 10:54:13;;;;;;;23.93;12.43;;;24.60;99.90;;;;;;5049921;28;20514;-69
2023/10/02 10:56:44;;;;;;;30.50;13.73;;;24.80;99.90;;;;;;5050353;28;20451;-69
2023/10/02 10:59:12;;;;;;;23.70;13.00;;;24.80;99.90;;;;;;5049761;28;20452;-69
2023/10/02 11:01:39;;;;;;;20.60;12.37;;;24.80;99.90;;;;;;5050425;28;20444;-69
2023/10/02 11:04:06;;;;;;;29.53;12.30;;;24.70;99.90;;;;;;5050708;28;20472;-69
2023/10/02 11:06:41;;;;;;;22.87;11.63;;;25.00;99.90;;;;;;5054071;28;20837;-69
2023/10/02 11:09:16;;;;;;;25.40;12.43;;;25.10;99.90;;;;;;5053648;28;20451;-69
2023/10/02 11:11:49;;;;;;;23.40;12.03;;;25.00;99.90;;;;;;5053717;28;20483;-69
2023/10/02 11:14:20;;;;;;;19.83;11.23;;;25.10;99.90;;;;;;5053605;28;20452;-69
2023/10/02 11:16:51;;;;;;;20.50;11.67;;;25.10;99.90;;;;;;5053955;28;20453;-70
2023/10/02 11:19:25;;;;;;;23.00;12.10;;;25.20;99.90;;;;;;5053432;28;20684;-69
2023/10/02 11:22:03;;;;;;;26.87;12.60;;;25.20;99.90;;;;;;5053344;28;20456;-69
2023/10/02 11:24:33;;;;;;;28.00;13.13;;;25.30;99.90;;;;;;5039144;28;20602;-70
2023/10/02 11:27:07;;;;;;;25.53;11.20;;;25.20;99.90;;;;;;5052920;28;20975;-69
2023/10/02 11:29:40;;;;;;;22.70;11.03;;;25.20;99.90;;;;;;5045148;28;20476;-69
2023/10/02 11:32:23;;;;;;;22.03;11.13;;;25.30;99.90;;;;;;5052109;28;20518;-69
2023/10/02 11:34:51;;;;;;;26.10;11.83;;;25.40;99.90;;;;;;5053374;28;20444;-69
2023/10/02 11:37:20;;;;;;;20.93;10.90;;;25.50;99.90;;;;;;5052181;28;20486;-69
2023/10/02 11:39:50;;;;;;;24.17;11.07;;;25.70;99.90;;;;;;5053038;28;20879;-69
2023/10/02 11:42:19;;;;;;;23.70;11.17;;;25.70;99.90;;;;;;5051134;28;20472;-69
2023/10/02 11:44:46;;;;;;;21.87;10.60;;;25.60;99.90;;;;;;5042412;28;20523;-69
2023/10/02 11:47:12;;;;;;;22.67;11.87;;;25.40;99.90;;;;;;5051375;28;20869;-69
2023/10/02 11:49:40;;;;;;;29.47;11.20;;;25.30;99.90;;;;;;5047589;28;20494;-69
2023/10/02 11:52:07;;;;;;;23.87;11.20;;;25.10;99.90;;;;;;5051302;28;20468;-70
2023/10/02 11:54:36;;;;;;;24.33;11.00;;;25.20;99.90;;;;;;5052410;28;20449;-69
2023/10/02 11:57:08;;;;;;;20.87;11.00;;;25.40;99.90;;;;;;5051397;28;20452;-69
2023/10/02 11:59:36;;;;;;;26.37;11.37;;;25.60;99.90;;;;;;5038909;28;20441;-70
2023/10/02 12:02:03;;;;;;;19.97;10.87;;;25.50;99.90;;;;;;5050917;28;20957;-69
2023/10/02 12:04:30;;;;;;;21.17;10.80;;;25.40;99.90;;;;;;5044664;28;21031;-69
2023/10/02 12:06:57;;;;;;;23.37;10.97;;;25.50;99.90;;;;;;5051946;28;20452;-69
2023/10/02 12:09:24;;;;;;;20.30;10.63;;;25.60;99.90;;;;;;5049990;28;20930;-69
2023/10/02 12:11:51;;;;;;;30.13;11.93;;;25.70;99.90;;;;;;5051327;28;20487;-69
2023/10/02 12:14:20;;;;;;;20.17;9.40;;;25.80;99.90;;;;;;5050076;28;20468;-69
2023/10/02 12:16:47;;;;;;;19.60;10.20;;;25.80;99.90;;;;;;5051548;28;20543;-69
2023/10/02 12:19:15;;;;;;;22.33;10.87;;;25.80;99.90;;;;;;5050487;28;20537;-69
2023/10/02 12:21:42;;;;;;;21.60;11.00;;;25.90;99.90;;;;;;5051298;28;20448;-69
2023/10/02 12:24:09;;;;;;;18.90;9.90;;;26.00;99.90;;;;;;5049800;28;20496;-69
2023/10/02 12:26:35;;;;;;;23.00;10.77;;;26.10;99.90;;;;;;5050968;28;20445;-69
2023/10/02 12:29:02;;;;;;;19.50;10.50;;;25.80;99.90;;;;;;5049073;28;20449;-69
2023/10/02 12:31:36;;;;;;;20.33;10.23;;;25.70;99.90;;;;;;5050622;28;20448;-69
2023/10/02 12:34:03;;;;;;;23.57;11.13;;;25.80;99.90;;;;;;5050018;28;20873;-69
2023/10/02 12:36:31;;;;;;;20.90;10.30;;;25.90;99.90;;;;;;5050203;28;20471;-69
2023/10/02 12:38:58;;;;;;;18.47;10.30;;;26.00;99.90;;;;;;5050615;28;20538;-69
2023/10/02 12:41:26;;;;;;;19.93;10.80;;;25.90;99.90;;;;;;5048144;28;20532;-69
2023/10/02 12:43:56;;;;;;;33.93;10.47;;;25.60;99.90;;;;;;5045085;28;20540;-69
2023/10/02 12:46:24;;;;;;;26.03;11.23;;;25.50;99.90;;;;;;5048996;28;20520;-70
2023/10/02 12:48:55;;;;;;;23.70;10.33;;;25.50;99.90;;;;;;5046341;28;20441;-69
2023/10/02 12:51:22;;;;;;;20.73;10.43;;;25.60;99.90;;;;;;5048418;28;20487;-69
2023/10/02 12:53:50;;;;;;;21.63;10.10;;;25.80;99.90;;;;;;5049886;28;20548;-70
2023/10/02 12:56:19;;;;;;;30.53;10.80;;;25.80;99.90;;;;;;5048533;28;20509;-69
2023/10/02 12:58:48;;;;;;;23.23;9.70;;;25.70;99.90;;;;;;5049979;28;20488;-69
2023/10/02 13:01:15;;;;;;;26.03;10.47;;;25.50;99.90;;;;;;5048478;28;20456;-69
2023/10/02 13:03:43;;;;;;;20.10;10.13;;;25.70;99.90;;;;;;5049567;28;20996;-69
2023/10/02 13:06:13;;;;;;;17.00;9.40;;;25.90;99.90;;;;;;5047652;28;20453;-69
2023/10/02 13:08:41;;;;;;;17.17;9.53;;;26.10;99.90;;;;;;5049698;28;20440;-70
2023/10/02 13:11:12;;;;;;;19.40;10.30;;;26.10;99.90;;;;;;5047556;28;20989;-69
2023/10/02 13:13:40;;;;;;;20.37;10.40;;;25.80;99.90;;;;;;5043066;28;20464;-70
2023/10/02 13:16:07;;;;;;;25.23;10.10;;;25.80;99.90;;;;;;5048031;28;20440;-70